sensor_id;sensor_type;location;lat;lon;timestamp;P1;durP1;ratioP1;P2;durP2;ratioP2
13651;SDS011;6899;51.546;6.912;2022-12-18T00:01:46;60.93;;;28.50;;
13651;SDS011;6899;51.546;6.912;2022-12-18T00:04:14;55.33;;;27.47;;
13651;SDS011;6899;51.546;6.912;2022-12-18T00:06:48;61.67;;;28.00;;
13651;SDS011;6899;51.546;6.912;2022-12-18T00:09:21;53.73;;;26.77;;
13651;SDS011;6899;51.546;6.912;2022-12-18T00:11:49;58.07;;;28.50;;
13651;SDS011;6899;51.546;6.912;2022-12-18T00:14:16;62.73;;;30.13;;
13651;SDS011;6899;51.546;6.912;2022-12-18T00:16:44;65.13;;;29.70;;
13651;SDS011;6899;51.546;6.912;2022-12-18T00:19:11;64.43;;;32.07;;
13651;SDS011;6899;51.546;6.912;2022-12-18T00:21:38;59.53;;;29.13;;
13651;SDS011;6899;51.546;6.912;2022-12-18T00:24:05;61.97;;;29.03;;
13651;SDS011;6899;51.546;6.912;2022-12-18T00:26:33;60.00;;;26.47;;
13651;SDS011;6899;51.546;6.912;2022-12-18T00:29:03;54.63;;;27.00;;
13651;SDS011;6899;51.546;6.912;2022-12-18T00:31:32;62.70;;;26.70;;
13651;SDS011;6899;51.546;6.912;2022-12-18T00:33:59;60.27;;;29.17;;
13651;SDS011;6899;51.546;6.912;2022-12-18T00:36:27;56.60;;;25.37;;
13651;SDS011;6899;51.546;6.912;2022-12-18T00:38:56;61.43;;;28.60;;
13651;SDS011;6899;51.546;6.912;2022-12-18T00:41:23;57.00;;;27.87;;
13651;SDS011;6899;51.546;6.912;2022-12-18T00:44:10;55.37;;;27.23;;
13651;SDS011;6899;51.546;6.912;2022-12-18T00:46:42;58.33;;;28.90;;
13651;SDS011;6899;51.546;6.912;2022-12-18T00:49:09;54.57;;;26.50;;
13651;SDS011;6899;51.546;6.912;2022-12-18T00:51:36;62.73;;;29.47;;
13651;SDS011;6899;51.546;6.912;2022-12-18T00:54:12;60.77;;;27.17;;
13651;SDS011;6899;51.546;6.912;2022-12-18T00:56:40;51.97;;;26.37;;
13651;SDS011;6899;51.546;6.912;2022-12-18T00:59:06;50.63;;;25.47;;
13651;SDS011;6899;51.546;6.912;2022-12-18T01:01:35;60.97;;;27.00;;
13651;SDS011;6899;51.546;6.912;2022-12-18T01:04:02;61.83;;;29.87;;
13651;SDS011;6899;51.546;6.912;2022-12-18T01:06:29;66.60;;;31.57;;
13651;SDS011;6899;51.546;6.912;2022-12-18T01:08:56;58.73;;;27.37;;
13651;SDS011;6899;51.546;6.912;2022-12-18T01:11:23;54.00;;;25.73;;
13651;SDS011;6899;51.546;6.912;2022-12-18T01:13:51;55.60;;;27.70;;
13651;SDS011;6899;51.546;6.912;2022-12-18T01:16:18;71.50;;;33.13;;
13651;SDS011;6899;51.546;6.912;2022-12-18T01:18:46;53.20;;;25.47;;
13651;SDS011;6899;51.546;6.912;2022-12-18T01:21:14;57.90;;;27.90;;
13651;SDS011;6899;51.546;6.912;2022-12-18T01:23:42;56.90;;;27.23;;
13651;SDS011;6899;51.546;6.912;2022-12-18T01:26:12;52.47;;;25.73;;
13651;SDS011;6899;51.546;6.912;2022-12-18T01:28:40;62.63;;;29.07;;
13651;SDS011;6899;51.546;6.912;2022-12-18T01:31:09;65.03;;;28.37;;
13651;SDS011;6899;51.546;6.912;2022-12-18T01:33:37;70.60;;;31.20;;
13651;SDS011;6899;51.546;6.912;2022-12-18T01:36:05;67.37;;;30.70;;
13651;SDS011;6899;51.546;6.912;2022-12-18T01:38:32;65.00;;;29.00;;
13651;SDS011;6899;51.546;6.912;2022-12-18T01:40:59;58.67;;;28.20;;
13651;SDS011;6899;51.546;6.912;2022-12-18T01:43:43;73.53;;;32.97;;
13651;SDS011;6899;51.546;6.912;2022-12-18T01:46:16;57.37;;;27.27;;
13651;SDS011;6899;51.546;6.912;2022-12-18T01:48:44;74.80;;;32.00;;
13651;SDS011;6899;51.546;6.912;2022-12-18T01:51:14;70.60;;;31.90;;
13651;SDS011;6899;51.546;6.912;2022-12-18T01:53:41;75.80;;;33.47;;
13651;SDS011;6899;51.546;6.912;2022-12-18T01:56:22;55.00;;;27.67;;
13651;SDS011;6899;51.546;6.912;2022-12-18T01:58:51;56.43;;;26.93;;
13651;SDS011;6899;51.546;6.912;2022-12-18T02:01:30;58.37;;;27.93;;
13651;SDS011;6899;51.546;6.912;2022-12-18T02:04:13;72.27;;;31.00;;
13651;SDS011;6899;51.546;6.912;2022-12-18T02:06:47;66.17;;;28.80;;
13651;SDS011;6899;51.546;6.912;2022-12-18T02:09:22;68.73;;;29.40;;
13651;SDS011;6899;51.546;6.912;2022-12-18T02:11:56;61.87;;;29.07;;
13651;SDS011;6899;51.546;6.912;2022-12-18T02:14:31;53.50;;;26.20;;
13651;SDS011;6899;51.546;6.912;2022-12-18T02:17:06;64.63;;;28.83;;
13651;SDS011;6899;51.546;6.912;2022-12-18T02:19:43;69.77;;;30.63;;
13651;SDS011;6899;51.546;6.912;2022-12-18T02:22:20;58.87;;;28.53;;
13651;SDS011;6899;51.546;6.912;2022-12-18T02:24:55;60.70;;;25.97;;
13651;SDS011;6899;51.546;6.912;2022-12-18T02:27:30;58.03;;;26.17;;
13651;SDS011;6899;51.546;6.912;2022-12-18T02:29:58;68.00;;;31.90;;
13651;SDS011;6899;51.546;6.912;2022-12-18T02:32:27;65.97;;;28.77;;
13651;SDS011;6899;51.546;6.912;2022-12-18T02:34:57;67.93;;;28.93;;
13651;SDS011;6899;51.546;6.912;2022-12-18T02:37:26;64.13;;;30.13;;
13651;SDS011;6899;51.546;6.912;2022-12-18T02:39:54;78.43;;;29.87;;
13651;SDS011;6899;51.546;6.912;2022-12-18T02:42:24;61.07;;;28.13;;
13651;SDS011;6899;51.546;6.912;2022-12-18T02:44:53;60.50;;;29.83;;
13651;SDS011;6899;51.546;6.912;2022-12-18T02:47:22;82.30;;;35.47;;
13651;SDS011;6899;51.546;6.912;2022-12-18T02:49:53;56.83;;;27.47;;
13651;SDS011;6899;51.546;6.912;2022-12-18T02:52:29;65.93;;;31.97;;
13651;SDS011;6899;51.546;6.912;2022-12-18T02:55:02;63.30;;;27.67;;
13651;SDS011;6899;51.546;6.912;2022-12-18T02:57:40;63.40;;;28.07;;
13651;SDS011;6899;51.546;6.912;2022-12-18T03:00:16;55.20;;;27.07;;
13651;SDS011;6899;51.546;6.912;2022-12-18T03:02:47;59.00;;;28.13;;
13651;SDS011;6899;51.546;6.912;2022-12-18T03:05:18;63.57;;;29.37;;
13651;SDS011;6899;51.546;6.912;2022-12-18T03:07:50;69.57;;;29.43;;
13651;SDS011;6899;51.546;6.912;2022-12-18T03:10:23;67.53;;;31.03;;
13651;SDS011;6899;51.546;6.912;2022-12-18T03:12:54;56.00;;;27.57;;
13651;SDS011;6899;51.546;6.912;2022-12-18T03:15:28;66.80;;;28.13;;
13651;SDS011;6899;51.546;6.912;2022-12-18T03:17:59;57.80;;;27.30;;
13651;SDS011;6899;51.546;6.912;2022-12-18T03:20:29;55.00;;;28.30;;
13651;SDS011;6899;51.546;6.912;2022-12-18T03:22:59;56.23;;;26.10;;
13651;SDS011;6899;51.546;6.912;2022-12-18T03:25:30;59.03;;;28.60;;
13651;SDS011;6899;51.546;6.912;2022-12-18T03:27:59;73.43;;;31.67;;
13651;SDS011;6899;51.546;6.912;2022-12-18T03:30:29;59.23;;;29.37;;
13651;SDS011;6899;51.546;6.912;2022-12-18T03:33:01;59.63;;;28.20;;
13651;SDS011;6899;51.546;6.912;2022-12-18T03:35:34;56.40;;;26.20;;
13651;SDS011;6899;51.546;6.912;2022-12-18T03:38:06;54.13;;;25.67;;
13651;SDS011;6899;51.546;6.912;2022-12-18T03:40:39;51.27;;;24.97;;
13651;SDS011;6899;51.546;6.912;2022-12-18T03:43:11;57.13;;;25.90;;
13651;SDS011;6899;51.546;6.912;2022-12-18T03:45:46;52.33;;;25.33;;
13651;SDS011;6899;51.546;6.912;2022-12-18T03:48:18;64.63;;;27.90;;
13651;SDS011;6899;51.546;6.912;2022-12-18T03:50:54;49.33;;;24.33;;
13651;SDS011;6899;51.546;6.912;2022-12-18T03:53:25;61.00;;;27.97;;
13651;SDS011;6899;51.546;6.912;2022-12-18T03:55:59;65.30;;;28.03;;
13651;SDS011;6899;51.546;6.912;2022-12-18T03:58:28;61.97;;;26.70;;
13651;SDS011;6899;51.546;6.912;2022-12-18T04:01:00;52.23;;;26.90;;
13651;SDS011;6899;51.546;6.912;2022-12-18T04:03:30;52.53;;;25.10;;
13651;SDS011;6899;51.546;6.912;2022-12-18T04:05:59;50.87;;;23.77;;
13651;SDS011;6899;51.546;6.912;2022-12-18T04:08:27;61.57;;;28.87;;
13651;SDS011;6899;51.546;6.912;2022-12-18T04:11:01;53.87;;;25.20;;
13651;SDS011;6899;51.546;6.912;2022-12-18T04:13:47;54.97;;;23.67;;
13651;SDS011;6899;51.546;6.912;2022-12-18T04:16:15;53.70;;;23.47;;
13651;SDS011;6899;51.546;6.912;2022-12-18T04:18:42;48.70;;;22.73;;
13651;SDS011;6899;51.546;6.912;2022-12-18T04:21:09;45.87;;;23.77;;
13651;SDS011;6899;51.546;6.912;2022-12-18T04:23:36;52.03;;;23.90;;
13651;SDS011;6899;51.546;6.912;2022-12-18T04:26:03;51.03;;;22.83;;
13651;SDS011;6899;51.546;6.912;2022-12-18T04:28:30;50.07;;;24.50;;
13651;SDS011;6899;51.546;6.912;2022-12-18T04:30:57;50.67;;;24.23;;
13651;SDS011;6899;51.546;6.912;2022-12-18T04:33:25;52.17;;;25.67;;
13651;SDS011;6899;51.546;6.912;2022-12-18T04:35:58;50.10;;;24.63;;
13651;SDS011;6899;51.546;6.912;2022-12-18T04:38:25;58.87;;;24.97;;
13651;SDS011;6899;51.546;6.912;2022-12-18T04:40:52;49.80;;;24.17;;
13651;SDS011;6899;51.546;6.912;2022-12-18T04:43:19;49.47;;;22.83;;
13651;SDS011;6899;51.546;6.912;2022-12-18T04:45:46;59.53;;;26.23;;
13651;SDS011;6899;51.546;6.912;2022-12-18T04:48:13;52.67;;;23.13;;
13651;SDS011;6899;51.546;6.912;2022-12-18T04:50:41;47.23;;;23.93;;
13651;SDS011;6899;51.546;6.912;2022-12-18T04:53:07;44.63;;;22.17;;
13651;SDS011;6899;51.546;6.912;2022-12-18T04:55:34;47.77;;;23.03;;
13651;SDS011;6899;51.546;6.912;2022-12-18T04:58:04;46.17;;;22.80;;
13651;SDS011;6899;51.546;6.912;2022-12-18T05:00:30;51.40;;;23.67;;
13651;SDS011;6899;51.546;6.912;2022-12-18T05:02:57;54.93;;;26.57;;
13651;SDS011;6899;51.546;6.912;2022-12-18T05:05:26;52.23;;;23.70;;
13651;SDS011;6899;51.546;6.912;2022-12-18T05:07:55;50.60;;;23.57;;
13651;SDS011;6899;51.546;6.912;2022-12-18T05:10:24;39.43;;;21.00;;
13651;SDS011;6899;51.546;6.912;2022-12-18T05:12:51;53.33;;;24.77;;
13651;SDS011;6899;51.546;6.912;2022-12-18T05:15:24;47.43;;;22.43;;
13651;SDS011;6899;51.546;6.912;2022-12-18T05:17:52;49.43;;;24.03;;
13651;SDS011;6899;51.546;6.912;2022-12-18T05:20:19;52.43;;;24.47;;
13651;SDS011;6899;51.546;6.912;2022-12-18T05:22:46;44.83;;;22.27;;
13651;SDS011;6899;51.546;6.912;2022-12-18T05:25:14;48.63;;;25.27;;
13651;SDS011;6899;51.546;6.912;2022-12-18T05:27:44;43.70;;;22.77;;
13651;SDS011;6899;51.546;6.912;2022-12-18T05:30:12;48.17;;;22.43;;
13651;SDS011;6899;51.546;6.912;2022-12-18T05:32:40;49.50;;;23.20;;
13651;SDS011;6899;51.546;6.912;2022-12-18T05:35:08;48.83;;;24.03;;
13651;SDS011;6899;51.546;6.912;2022-12-18T05:37:36;51.07;;;23.77;;
13651;SDS011;6899;51.546;6.912;2022-12-18T05:40:09;51.70;;;24.93;;
13651;SDS011;6899;51.546;6.912;2022-12-18T05:42:38;55.77;;;26.30;;
13651;SDS011;6899;51.546;6.912;2022-12-18T05:45:05;50.60;;;24.73;;
13651;SDS011;6899;51.546;6.912;2022-12-18T05:47:32;46.27;;;22.10;;
13651;SDS011;6899;51.546;6.912;2022-12-18T05:49:59;47.50;;;22.90;;
13651;SDS011;6899;51.546;6.912;2022-12-18T05:52:35;47.50;;;21.83;;
13651;SDS011;6899;51.546;6.912;2022-12-18T05:55:08;47.60;;;22.30;;
13651;SDS011;6899;51.546;6.912;2022-12-18T05:57:35;47.30;;;23.17;;
13651;SDS011;6899;51.546;6.912;2022-12-18T06:00:03;42.07;;;20.63;;
13651;SDS011;6899;51.546;6.912;2022-12-18T06:02:31;53.43;;;26.37;;
13651;SDS011;6899;51.546;6.912;2022-12-18T06:04:58;48.80;;;21.40;;
13651;SDS011;6899;51.546;6.912;2022-12-18T06:07:27;44.50;;;21.90;;
13651;SDS011;6899;51.546;6.912;2022-12-18T06:09:54;41.73;;;20.53;;
13651;SDS011;6899;51.546;6.912;2022-12-18T06:12:21;44.50;;;21.77;;
13651;SDS011;6899;51.546;6.912;2022-12-18T06:14:48;45.50;;;22.87;;
13651;SDS011;6899;51.546;6.912;2022-12-18T06:17:16;43.30;;;21.33;;
13651;SDS011;6899;51.546;6.912;2022-12-18T06:19:43;44.57;;;21.60;;
13651;SDS011;6899;51.546;6.912;2022-12-18T06:22:10;43.00;;;20.47;;
13651;SDS011;6899;51.546;6.912;2022-12-18T06:24:36;46.70;;;21.87;;
13651;SDS011;6899;51.546;6.912;2022-12-18T06:27:03;43.47;;;20.20;;
13651;SDS011;6899;51.546;6.912;2022-12-18T06:29:33;38.63;;;19.80;;
13651;SDS011;6899;51.546;6.912;2022-12-18T06:32:00;42.50;;;20.83;;
13651;SDS011;6899;51.546;6.912;2022-12-18T06:34:28;40.53;;;21.17;;
13651;SDS011;6899;51.546;6.912;2022-12-18T06:36:55;48.97;;;21.77;;
13651;SDS011;6899;51.546;6.912;2022-12-18T06:39:22;39.33;;;20.70;;
13651;SDS011;6899;51.546;6.912;2022-12-18T06:41:48;46.67;;;21.33;;
13651;SDS011;6899;51.546;6.912;2022-12-18T06:44:15;40.13;;;20.90;;
13651;SDS011;6899;51.546;6.912;2022-12-18T06:46:42;39.60;;;19.83;;
13651;SDS011;6899;51.546;6.912;2022-12-18T06:49:09;40.40;;;20.13;;
13651;SDS011;6899;51.546;6.912;2022-12-18T06:51:37;38.03;;;19.13;;
13651;SDS011;6899;51.546;6.912;2022-12-18T06:54:04;42.23;;;18.77;;
13651;SDS011;6899;51.546;6.912;2022-12-18T06:56:31;33.07;;;18.50;;
13651;SDS011;6899;51.546;6.912;2022-12-18T06:58:58;37.73;;;19.80;;
13651;SDS011;6899;51.546;6.912;2022-12-18T07:01:24;38.57;;;19.17;;
13651;SDS011;6899;51.546;6.912;2022-12-18T07:03:51;37.40;;;18.47;;
13651;SDS011;6899;51.546;6.912;2022-12-18T07:06:20;37.27;;;18.47;;
13651;SDS011;6899;51.546;6.912;2022-12-18T07:08:50;35.43;;;17.60;;
13651;SDS011;6899;51.546;6.912;2022-12-18T07:11:19;38.17;;;19.13;;
13651;SDS011;6899;51.546;6.912;2022-12-18T07:13:46;36.93;;;17.57;;
13651;SDS011;6899;51.546;6.912;2022-12-18T07:16:13;39.13;;;18.53;;
13651;SDS011;6899;51.546;6.912;2022-12-18T07:18:41;37.97;;;19.97;;
13651;SDS011;6899;51.546;6.912;2022-12-18T07:21:11;36.37;;;19.60;;
13651;SDS011;6899;51.546;6.912;2022-12-18T07:23:39;34.27;;;17.57;;
13651;SDS011;6899;51.546;6.912;2022-12-18T07:26:08;34.07;;;18.60;;
13651;SDS011;6899;51.546;6.912;2022-12-18T07:28:38;35.50;;;17.87;;
13651;SDS011;6899;51.546;6.912;2022-12-18T07:31:06;36.17;;;18.50;;
13651;SDS011;6899;51.546;6.912;2022-12-18T07:33:35;38.80;;;19.27;;
13651;SDS011;6899;51.546;6.912;2022-12-18T07:36:02;37.97;;;18.67;;
13651;SDS011;6899;51.546;6.912;2022-12-18T07:38:31;35.77;;;18.13;;
13651;SDS011;6899;51.546;6.912;2022-12-18T07:41:00;32.20;;;18.03;;
13651;SDS011;6899;51.546;6.912;2022-12-18T07:43:44;37.93;;;18.57;;
13651;SDS011;6899;51.546;6.912;2022-12-18T07:46:14;38.83;;;17.67;;
13651;SDS011;6899;51.546;6.912;2022-12-18T07:48:42;37.40;;;19.50;;
13651;SDS011;6899;51.546;6.912;2022-12-18T07:51:10;36.10;;;18.33;;
13651;SDS011;6899;51.546;6.912;2022-12-18T07:53:38;36.90;;;18.40;;
13651;SDS011;6899;51.546;6.912;2022-12-18T07:56:07;35.10;;;18.13;;
13651;SDS011;6899;51.546;6.912;2022-12-18T07:58:37;36.03;;;18.77;;
13651;SDS011;6899;51.546;6.912;2022-12-18T08:01:05;36.97;;;17.93;;
13651;SDS011;6899;51.546;6.912;2022-12-18T08:03:32;36.83;;;19.10;;
13651;SDS011;6899;51.546;6.912;2022-12-18T08:05:59;33.60;;;17.60;;
13651;SDS011;6899;51.546;6.912;2022-12-18T08:08:27;37.83;;;18.97;;
13651;SDS011;6899;51.546;6.912;2022-12-18T08:10:54;33.67;;;18.73;;
13651;SDS011;6899;51.546;6.912;2022-12-18T08:13:21;34.90;;;18.13;;
13651;SDS011;6899;51.546;6.912;2022-12-18T08:15:56;37.80;;;20.47;;
13651;SDS011;6899;51.546;6.912;2022-12-18T08:18:23;40.83;;;20.90;;
13651;SDS011;6899;51.546;6.912;2022-12-18T08:20:50;37.40;;;20.17;;
13651;SDS011;6899;51.546;6.912;2022-12-18T08:23:17;33.63;;;18.70;;
13651;SDS011;6899;51.546;6.912;2022-12-18T08:25:45;38.57;;;19.93;;
13651;SDS011;6899;51.546;6.912;2022-12-18T08:28:12;42.70;;;22.00;;
13651;SDS011;6899;51.546;6.912;2022-12-18T08:30:39;40.67;;;20.60;;
13651;SDS011;6899;51.546;6.912;2022-12-18T08:33:12;41.13;;;22.33;;
13651;SDS011;6899;51.546;6.912;2022-12-18T08:35:45;46.03;;;22.63;;
13651;SDS011;6899;51.546;6.912;2022-12-18T08:38:12;42.97;;;22.07;;
13651;SDS011;6899;51.546;6.912;2022-12-18T08:40:42;49.97;;;23.40;;
13651;SDS011;6899;51.546;6.912;2022-12-18T08:43:08;61.33;;;29.47;;
13651;SDS011;6899;51.546;6.912;2022-12-18T08:46:06;49.57;;;25.80;;
13651;SDS011;6899;51.546;6.912;2022-12-18T08:48:34;63.57;;;31.50;;
13651;SDS011;6899;51.546;6.912;2022-12-18T08:51:01;52.47;;;27.03;;
13651;SDS011;6899;51.546;6.912;2022-12-18T08:53:28;67.40;;;33.83;;
13651;SDS011;6899;51.546;6.912;2022-12-18T08:55:57;65.77;;;29.97;;
13651;SDS011;6899;51.546;6.912;2022-12-18T08:58:24;55.17;;;28.90;;
13651;SDS011;6899;51.546;6.912;2022-12-18T09:00:51;59.47;;;29.73;;
13651;SDS011;6899;51.546;6.912;2022-12-18T09:03:18;67.93;;;33.67;;
13651;SDS011;6899;51.546;6.912;2022-12-18T09:05:48;58.80;;;29.70;;
13651;SDS011;6899;51.546;6.912;2022-12-18T09:08:16;58.47;;;31.47;;
13651;SDS011;6899;51.546;6.912;2022-12-18T09:10:45;57.63;;;28.67;;
13651;SDS011;6899;51.546;6.912;2022-12-18T09:13:13;62.03;;;32.97;;
13651;SDS011;6899;51.546;6.912;2022-12-18T09:15:50;71.43;;;34.40;;
13651;SDS011;6899;51.546;6.912;2022-12-18T09:18:24;71.27;;;37.70;;
13651;SDS011;6899;51.546;6.912;2022-12-18T09:20:55;59.57;;;31.07;;
13651;SDS011;6899;51.546;6.912;2022-12-18T09:23:31;62.67;;;33.23;;
13651;SDS011;6899;51.546;6.912;2022-12-18T09:25:58;62.80;;;34.37;;
13651;SDS011;6899;51.546;6.912;2022-12-18T09:28:25;61.23;;;33.07;;
13651;SDS011;6899;51.546;6.912;2022-12-18T09:30:54;72.83;;;38.00;;
13651;SDS011;6899;51.546;6.912;2022-12-18T09:33:21;73.47;;;40.83;;
13651;SDS011;6899;51.546;6.912;2022-12-18T09:35:50;73.67;;;41.57;;
13651;SDS011;6899;51.546;6.912;2022-12-18T09:38:19;67.47;;;37.70;;
13651;SDS011;6899;51.546;6.912;2022-12-18T09:40:46;71.80;;;36.53;;
13651;SDS011;6899;51.546;6.912;2022-12-18T09:43:17;58.90;;;33.80;;
13651;SDS011;6899;51.546;6.912;2022-12-18T09:45:49;64.50;;;35.60;;
13651;SDS011;6899;51.546;6.912;2022-12-18T09:48:38;62.90;;;34.63;;
13651;SDS011;6899;51.546;6.912;2022-12-18T09:51:10;72.67;;;40.70;;
13651;SDS011;6899;51.546;6.912;2022-12-18T09:53:47;65.37;;;36.07;;
13651;SDS011;6899;51.546;6.912;2022-12-18T09:56:22;56.77;;;33.30;;
13651;SDS011;6899;51.546;6.912;2022-12-18T09:58:53;61.33;;;34.13;;
13651;SDS011;6899;51.546;6.912;2022-12-18T10:01:24;58.30;;;34.37;;
13651;SDS011;6899;51.546;6.912;2022-12-18T10:03:52;60.93;;;35.00;;
13651;SDS011;6899;51.546;6.912;2022-12-18T10:06:21;62.70;;;36.70;;
13651;SDS011;6899;51.546;6.912;2022-12-18T10:08:54;58.17;;;35.20;;
13651;SDS011;6899;51.546;6.912;2022-12-18T10:11:29;70.43;;;39.60;;
13651;SDS011;6899;51.546;6.912;2022-12-18T10:14:07;72.20;;;42.40;;
13651;SDS011;6899;51.546;6.912;2022-12-18T10:16:47;71.17;;;41.57;;
13651;SDS011;6899;51.546;6.912;2022-12-18T10:19:32;67.23;;;38.97;;
13651;SDS011;6899;51.546;6.912;2022-12-18T10:22:10;69.50;;;39.00;;
13651;SDS011;6899;51.546;6.912;2022-12-18T10:24:48;74.27;;;41.93;;
13651;SDS011;6899;51.546;6.912;2022-12-18T10:27:26;73.97;;;41.00;;
13651;SDS011;6899;51.546;6.912;2022-12-18T10:29:53;66.17;;;38.73;;
13651;SDS011;6899;51.546;6.912;2022-12-18T10:32:24;70.47;;;40.23;;
13651;SDS011;6899;51.546;6.912;2022-12-18T10:34:53;70.13;;;39.73;;
13651;SDS011;6899;51.546;6.912;2022-12-18T10:37:22;62.40;;;37.33;;
13651;SDS011;6899;51.546;6.912;2022-12-18T10:42:44;61.40;;;38.13;;
13651;SDS011;6899;51.546;6.912;2022-12-18T10:45:12;65.00;;;39.13;;
13651;SDS011;6899;51.546;6.912;2022-12-18T10:47:42;62.80;;;37.10;;
13651;SDS011;6899;51.546;6.912;2022-12-18T10:50:18;59.67;;;36.03;;
13651;SDS011;6899;51.546;6.912;2022-12-18T10:52:54;54.70;;;34.00;;
13651;SDS011;6899;51.546;6.912;2022-12-18T10:55:31;55.93;;;32.80;;
13651;SDS011;6899;51.546;6.912;2022-12-18T10:58:12;57.03;;;32.83;;
13651;SDS011;6899;51.546;6.912;2022-12-18T11:00:43;49.60;;;30.87;;
13651;SDS011;6899;51.546;6.912;2022-12-18T11:03:28;58.00;;;33.37;;
13651;SDS011;6899;51.546;6.912;2022-12-18T11:06:01;57.00;;;32.50;;
13651;SDS011;6899;51.546;6.912;2022-12-18T11:08:30;55.00;;;33.33;;
13651;SDS011;6899;51.546;6.912;2022-12-18T11:10:58;56.20;;;33.87;;
13651;SDS011;6899;51.546;6.912;2022-12-18T11:13:25;54.40;;;34.47;;
13651;SDS011;6899;51.546;6.912;2022-12-18T11:15:54;54.63;;;34.03;;
13651;SDS011;6899;51.546;6.912;2022-12-18T11:18:23;57.30;;;35.03;;
13651;SDS011;6899;51.546;6.912;2022-12-18T11:20:54;57.63;;;34.20;;
13651;SDS011;6899;51.546;6.912;2022-12-18T11:23:23;55.50;;;34.57;;
13651;SDS011;6899;51.546;6.912;2022-12-18T11:25:52;54.50;;;34.00;;
13651;SDS011;6899;51.546;6.912;2022-12-18T11:31:23;52.83;;;32.90;;
13651;SDS011;6899;51.546;6.912;2022-12-18T11:34:02;57.60;;;34.00;;
13651;SDS011;6899;51.546;6.912;2022-12-18T11:36:38;52.63;;;34.30;;
13651;SDS011;6899;51.546;6.912;2022-12-18T11:39:12;56.33;;;35.53;;
13651;SDS011;6899;51.546;6.912;2022-12-18T11:41:47;57.07;;;34.90;;
13651;SDS011;6899;51.546;6.912;2022-12-18T11:44:44;56.33;;;34.87;;
13651;SDS011;6899;51.546;6.912;2022-12-18T11:47:23;59.37;;;36.93;;
13651;SDS011;6899;51.546;6.912;2022-12-18T11:49:55;75.97;;;47.53;;
13651;SDS011;6899;51.546;6.912;2022-12-18T11:52:26;60.60;;;39.73;;
13651;SDS011;6899;51.546;6.912;2022-12-18T11:55:11;63.30;;;38.63;;
13651;SDS011;6899;51.546;6.912;2022-12-18T11:57:41;64.13;;;41.73;;
13651;SDS011;6899;51.546;6.912;2022-12-18T12:00:16;68.47;;;42.90;;
13651;SDS011;6899;51.546;6.912;2022-12-18T12:02:49;61.83;;;39.30;;
13651;SDS011;6899;51.546;6.912;2022-12-18T12:05:41;60.50;;;38.17;;
13651;SDS011;6899;51.546;6.912;2022-12-18T12:08:20;61.83;;;38.63;;
13651;SDS011;6899;51.546;6.912;2022-12-18T12:10:58;62.30;;;38.43;;
13651;SDS011;6899;51.546;6.912;2022-12-18T12:13:35;63.83;;;41.63;;
13651;SDS011;6899;51.546;6.912;2022-12-18T12:16:13;57.17;;;38.37;;
13651;SDS011;6899;51.546;6.912;2022-12-18T12:18:53;59.60;;;37.60;;
13651;SDS011;6899;51.546;6.912;2022-12-18T12:21:31;58.37;;;38.50;;
13651;SDS011;6899;51.546;6.912;2022-12-18T12:24:10;116.80;;;61.90;;
13651;SDS011;6899;51.546;6.912;2022-12-18T12:26:48;99.40;;;54.17;;
13651;SDS011;6899;51.546;6.912;2022-12-18T12:29:22;82.50;;;47.90;;
13651;SDS011;6899;51.546;6.912;2022-12-18T12:32:04;79.40;;;46.87;;
13651;SDS011;6899;51.546;6.912;2022-12-18T12:34:44;82.00;;;47.93;;
13651;SDS011;6899;51.546;6.912;2022-12-18T12:37:25;85.33;;;48.30;;
13651;SDS011;6899;51.546;6.912;2022-12-18T12:40:01;78.50;;;48.30;;
13651;SDS011;6899;51.546;6.912;2022-12-18T12:42:30;80.93;;;47.60;;
13651;SDS011;6899;51.546;6.912;2022-12-18T12:45:20;76.23;;;46.20;;
13651;SDS011;6899;51.546;6.912;2022-12-18T12:48:02;72.27;;;48.47;;
13651;SDS011;6899;51.546;6.912;2022-12-18T12:50:30;74.70;;;46.00;;
13651;SDS011;6899;51.546;6.912;2022-12-18T12:53:00;73.77;;;46.80;;
13651;SDS011;6899;51.546;6.912;2022-12-18T12:55:32;69.30;;;42.73;;
13651;SDS011;6899;51.546;6.912;2022-12-18T12:58:01;65.80;;;41.80;;
13651;SDS011;6899;51.546;6.912;2022-12-18T13:00:36;62.03;;;38.63;;
13651;SDS011;6899;51.546;6.912;2022-12-18T13:03:14;65.10;;;39.90;;
13651;SDS011;6899;51.546;6.912;2022-12-18T13:05:51;60.93;;;39.40;;
13651;SDS011;6899;51.546;6.912;2022-12-18T13:08:22;61.37;;;40.70;;
13651;SDS011;6899;51.546;6.912;2022-12-18T13:10:51;62.97;;;39.90;;
13651;SDS011;6899;51.546;6.912;2022-12-18T13:13:47;59.93;;;38.20;;
13651;SDS011;6899;51.546;6.912;2022-12-18T13:16:14;63.57;;;40.37;;
13651;SDS011;6899;51.546;6.912;2022-12-18T13:18:53;65.40;;;43.00;;
13651;SDS011;6899;51.546;6.912;2022-12-18T13:21:24;76.13;;;47.47;;
13651;SDS011;6899;51.546;6.912;2022-12-18T13:23:53;71.47;;;48.67;;
13651;SDS011;6899;51.546;6.912;2022-12-18T13:26:30;90.60;;;54.50;;
13651;SDS011;6899;51.546;6.912;2022-12-18T13:28:59;88.80;;;55.97;;
13651;SDS011;6899;51.546;6.912;2022-12-18T13:34:30;84.60;;;55.17;;
13651;SDS011;6899;51.546;6.912;2022-12-18T13:39:58;81.00;;;50.60;;
13651;SDS011;6899;51.546;6.912;2022-12-18T13:42:34;81.70;;;49.93;;
13651;SDS011;6899;51.546;6.912;2022-12-18T13:45:34;81.50;;;51.30;;
13651;SDS011;6899;51.546;6.912;2022-12-18T13:48:17;82.73;;;52.50;;
13651;SDS011;6899;51.546;6.912;2022-12-18T13:50:53;80.40;;;52.10;;
13651;SDS011;6899;51.546;6.912;2022-12-18T13:53:24;90.00;;;56.10;;
13651;SDS011;6899;51.546;6.912;2022-12-18T13:55:54;89.77;;;55.10;;
13651;SDS011;6899;51.546;6.912;2022-12-18T13:58:21;88.60;;;55.27;;
13651;SDS011;6899;51.546;6.912;2022-12-18T14:00:48;82.23;;;52.40;;
13651;SDS011;6899;51.546;6.912;2022-12-18T14:03:19;79.33;;;51.87;;
13651;SDS011;6899;51.546;6.912;2022-12-18T14:05:58;74.93;;;46.80;;
13651;SDS011;6899;51.546;6.912;2022-12-18T14:08:28;78.10;;;48.00;;
13651;SDS011;6899;51.546;6.912;2022-12-18T14:11:00;75.53;;;46.93;;
13651;SDS011;6899;51.546;6.912;2022-12-18T14:13:30;73.37;;;45.93;;
13651;SDS011;6899;51.546;6.912;2022-12-18T14:16:00;85.10;;;53.57;;
13651;SDS011;6899;51.546;6.912;2022-12-18T14:18:29;72.67;;;47.03;;
13651;SDS011;6899;51.546;6.912;2022-12-18T14:21:03;68.23;;;43.93;;
13651;SDS011;6899;51.546;6.912;2022-12-18T14:23:32;70.70;;;42.90;;
13651;SDS011;6899;51.546;6.912;2022-12-18T14:26:03;63.50;;;41.67;;
13651;SDS011;6899;51.546;6.912;2022-12-18T14:28:47;63.00;;;40.03;;
13651;SDS011;6899;51.546;6.912;2022-12-18T14:31:16;61.43;;;40.10;;
13651;SDS011;6899;51.546;6.912;2022-12-18T14:33:45;67.83;;;41.50;;
13651;SDS011;6899;51.546;6.912;2022-12-18T14:36:16;64.73;;;42.17;;
13651;SDS011;6899;51.546;6.912;2022-12-18T14:38:47;60.63;;;37.73;;
13651;SDS011;6899;51.546;6.912;2022-12-18T14:41:16;55.47;;;33.83;;
13651;SDS011;6899;51.546;6.912;2022-12-18T14:43:46;53.03;;;33.90;;
13651;SDS011;6899;51.546;6.912;2022-12-18T14:46:32;52.07;;;31.83;;
13651;SDS011;6899;51.546;6.912;2022-12-18T14:49:01;47.30;;;28.90;;
13651;SDS011;6899;51.546;6.912;2022-12-18T14:51:32;46.33;;;28.93;;
13651;SDS011;6899;51.546;6.912;2022-12-18T14:54:01;50.43;;;27.07;;
13651;SDS011;6899;51.546;6.912;2022-12-18T14:56:30;45.80;;;27.57;;
13651;SDS011;6899;51.546;6.912;2022-12-18T14:59:00;46.07;;;29.67;;
13651;SDS011;6899;51.546;6.912;2022-12-18T15:01:30;55.07;;;33.13;;
13651;SDS011;6899;51.546;6.912;2022-12-18T15:04:00;59.73;;;33.63;;
13651;SDS011;6899;51.546;6.912;2022-12-18T15:06:29;55.83;;;34.20;;
13651;SDS011;6899;51.546;6.912;2022-12-18T15:09:00;52.10;;;31.23;;